sensor_id;sensor_type;location;lat;lon;timestamp;P1;durP1;ratioP1;P2;durP2;ratioP2
6452;SDS011;3259;51.080;13.712;2023-12-04T00:01:27;1.48;;;0.25;;
6452;SDS011;3259;51.080;13.712;2023-12-04T00:04:16;0.30;;;0.30;;
6452;SDS011;3259;51.080;13.712;2023-12-04T00:07:05;0.20;;;0.20;;
6452;SDS011;3259;51.080;13.712;2023-12-04T00:09:54;0.82;;;0.35;;
6452;SDS011;3259;51.080;13.712;2023-12-04T00:12:44;1.65;;;0.10;;
6452;SDS011;3259;51.080;13.712;2023-12-04T00:15:33;1.20;;;0.38;;
6452;SDS011;3259;51.080;13.712;2023-12-04T00:18:22;0.38;;;0.20;;
6452;SDS011;3259;51.080;13.712;2023-12-04T00:21:12;0.10;;;0.10;;
6452;SDS011;3259;51.080;13.712;2023-12-04T00:24:01;1.15;;;0.05;;
6452;SDS011;3259;51.080;13.712;2023-12-04T00:26:50;2.03;;;0.50;;
6452;SDS011;3259;51.080;13.712;2023-12-04T00:29:40;0.35;;;0.35;;
6452;SDS011;3259;51.080;13.712;2023-12-04T00:32:28;1.13;;;0.13;;
6452;SDS011;3259;51.080;13.712;2023-12-04T00:35:18;0.82;;;0.22;;
6452;SDS011;3259;51.080;13.712;2023-12-04T00:38:07;1.45;;;0.50;;
6452;SDS011;3259;51.080;13.712;2023-12-04T00:40:56;0.10;;;0.10;;
6452;SDS011;3259;51.080;13.712;2023-12-04T00:43:44;0.20;;;0.20;;
6452;SDS011;3259;51.080;13.712;2023-12-04T00:46:34;4.93;;;0.22;;
6452;SDS011;3259;51.080;13.712;2023-12-04T00:49:23;0.10;;;0.10;;
6452;SDS011;3259;51.080;13.712;2023-12-04T00:52:13;1.25;;;0.30;;
6452;SDS011;3259;51.080;13.712;2023-12-04T00:55:02;0.20;;;0.20;;
6452;SDS011;3259;51.080;13.712;2023-12-04T00:57:50;2.22;;;0.22;;
6452;SDS011;3259;51.080;13.712;2023-12-04T01:00:39;0.10;;;0.10;;
6452;SDS011;3259;51.080;13.712;2023-12-04T01:03:29;7.32;;;0.50;;
6452;SDS011;3259;51.080;13.712;2023-12-04T01:06:20;0.20;;;0.20;;
6452;SDS011;3259;51.080;13.712;2023-12-04T01:09:10;0.85;;;0.20;;
6452;SDS011;3259;51.080;13.712;2023-12-04T01:11:59;1.30;;;0.20;;
6452;SDS011;3259;51.080;13.712;2023-12-04T01:14:48;0.10;;;0.10;;
6452;SDS011;3259;51.080;13.712;2023-12-04T01:17:36;1.90;;;0.10;;
6452;SDS011;3259;51.080;13.712;2023-12-04T01:20:27;0.10;;;0.10;;
6452;SDS011;3259;51.080;13.712;2023-12-04T01:23:16;0.13;;;0.10;;
6452;SDS011;3259;51.080;13.712;2023-12-04T01:26:05;0.10;;;0.10;;
6452;SDS011;3259;51.080;13.712;2023-12-04T01:28:54;0.98;;;0.20;;
6452;SDS011;3259;51.080;13.712;2023-12-04T01:31:43;0.10;;;0.10;;
6452;SDS011;3259;51.080;13.712;2023-12-04T01:34:32;0.20;;;0.20;;
6452;SDS011;3259;51.080;13.712;2023-12-04T01:37:22;0.30;;;0.30;;
6452;SDS011;3259;51.080;13.712;2023-12-04T01:40:13;0.10;;;0.10;;
6452;SDS011;3259;51.080;13.712;2023-12-04T01:43:02;1.63;;;0.20;;
6452;SDS011;3259;51.080;13.712;2023-12-04T01:45:52;0.20;;;0.20;;
6452;SDS011;3259;51.080;13.712;2023-12-04T01:48:41;1.25;;;0.20;;
6452;SDS011;3259;51.080;13.712;2023-12-04T01:51:30;0.47;;;0.28;;
6452;SDS011;3259;51.080;13.712;2023-12-04T01:54:21;0.00;;;0.00;;
6452;SDS011;3259;51.080;13.712;2023-12-04T01:57:11;0.20;;;0.20;;
6452;SDS011;3259;51.080;13.712;2023-12-04T01:59:59;1.13;;;0.17;;
6452;SDS011;3259;51.080;13.712;2023-12-04T02:02:48;0.10;;;0.10;;
6452;SDS011;3259;51.080;13.712;2023-12-04T02:05:37;0.52;;;0.10;;
6452;SDS011;3259;51.080;13.712;2023-12-04T02:08:27;0.45;;;0.10;;
6452;SDS011;3259;51.080;13.712;2023-12-04T02:11:18;0.10;;;0.10;;
6452;SDS011;3259;51.080;13.712;2023-12-04T02:14:06;0.63;;;0.20;;
6452;SDS011;3259;51.080;13.712;2023-12-04T02:16:55;0.00;;;0.00;;
6452;SDS011;3259;51.080;13.712;2023-12-04T02:19:49;0.22;;;0.20;;
6452;SDS011;3259;51.080;13.712;2023-12-04T02:22:38;0.10;;;0.10;;
6452;SDS011;3259;51.080;13.712;2023-12-04T02:25:28;0.20;;;0.20;;
6452;SDS011;3259;51.080;13.712;2023-12-04T02:28:23;0.77;;;0.15;;
6452;SDS011;3259;51.080;13.712;2023-12-04T02:31:15;0.65;;;0.20;;
6452;SDS011;3259;51.080;13.712;2023-12-04T02:34:06;0.10;;;0.00;;
6452;SDS011;3259;51.080;13.712;2023-12-04T02:36:56;0.00;;;0.00;;
6452;SDS011;3259;51.080;13.712;2023-12-04T02:39:47;0.68;;;0.10;;
6452;SDS011;3259;51.080;13.712;2023-12-04T02:42:40;0.30;;;0.17;;
6452;SDS011;3259;51.080;13.712;2023-12-04T02:45:29;0.20;;;0.20;;
6452;SDS011;3259;51.080;13.712;2023-12-04T02:48:18;0.75;;;0.10;;
6452;SDS011;3259;51.080;13.712;2023-12-04T02:51:07;0.63;;;0.20;;
6452;SDS011;3259;51.080;13.712;2023-12-04T02:53:56;0.30;;;0.10;;
6452;SDS011;3259;51.080;13.712;2023-12-04T02:56:44;0.35;;;0.10;;
6452;SDS011;3259;51.080;13.712;2023-12-04T02:59:34;0.95;;;0.10;;
6452;SDS011;3259;51.080;13.712;2023-12-04T03:02:23;0.10;;;0.10;;
6452;SDS011;3259;51.080;13.712;2023-12-04T03:05:12;0.15;;;0.15;;
6452;SDS011;3259;51.080;13.712;2023-12-04T03:08:01;0.32;;;0.20;;
6452;SDS011;3259;51.080;13.712;2023-12-04T03:10:49;0.10;;;0.00;;
6452;SDS011;3259;51.080;13.712;2023-12-04T03:13:38;3.40;;;0.25;;
6452;SDS011;3259;51.080;13.712;2023-12-04T03:16:28;0.13;;;0.13;;
6452;SDS011;3259;51.080;13.712;2023-12-04T03:19:17;1.38;;;0.10;;
6452;SDS011;3259;51.080;13.712;2023-12-04T03:22:06;0.13;;;0.13;;
6452;SDS011;3259;51.080;13.712;2023-12-04T03:24:54;0.38;;;0.10;;
6452;SDS011;3259;51.080;13.712;2023-12-04T03:27:43;0.35;;;0.20;;
6452;SDS011;3259;51.080;13.712;2023-12-04T03:30:32;0.28;;;0.20;;
6452;SDS011;3259;51.080;13.712;2023-12-04T03:33:22;0.45;;;0.20;;
6452;SDS011;3259;51.080;13.712;2023-12-04T03:36:11;0.10;;;0.10;;
6452;SDS011;3259;51.080;13.712;2023-12-04T03:39:00;0.10;;;0.10;;
6452;SDS011;3259;51.080;13.712;2023-12-04T03:41:49;0.25;;;0.22;;
6452;SDS011;3259;51.080;13.712;2023-12-04T03:44:38;1.10;;;0.30;;
6452;SDS011;3259;51.080;13.712;2023-12-04T03:47:26;0.10;;;0.10;;
6452;SDS011;3259;51.080;13.712;2023-12-04T03:50:17;0.38;;;0.00;;
6452;SDS011;3259;51.080;13.712;2023-12-04T03:53:05;0.15;;;0.15;;
6452;SDS011;3259;51.080;13.712;2023-12-04T03:55:54;0.28;;;0.28;;
6452;SDS011;3259;51.080;13.712;2023-12-04T03:58:43;1.85;;;0.10;;
6452;SDS011;3259;51.080;13.712;2023-12-04T04:01:31;0.10;;;0.10;;
6452;SDS011;3259;51.080;13.712;2023-12-04T04:04:20;0.10;;;0.10;;
6452;SDS011;3259;51.080;13.712;2023-12-04T04:07:11;0.30;;;0.10;;
6452;SDS011;3259;51.080;13.712;2023-12-04T04:10:00;0.13;;;0.13;;
6452;SDS011;3259;51.080;13.712;2023-12-04T04:12:49;0.10;;;0.10;;
6452;SDS011;3259;51.080;13.712;2023-12-04T04:15:38;0.30;;;0.03;;
6452;SDS011;3259;51.080;13.712;2023-12-04T04:18:27;0.77;;;0.10;;
6452;SDS011;3259;51.080;13.712;2023-12-04T04:21:16;0.05;;;0.00;;
6452;SDS011;3259;51.080;13.712;2023-12-04T04:24:06;0.10;;;0.10;;
6452;SDS011;3259;51.080;13.712;2023-12-04T04:26:58;1.23;;;0.20;;
6452;SDS011;3259;51.080;13.712;2023-12-04T04:29:46;0.52;;;0.20;;
6452;SDS011;3259;51.080;13.712;2023-12-04T04:32:35;0.47;;;0.28;;
6452;SDS011;3259;51.080;13.712;2023-12-04T04:35:24;0.17;;;0.10;;
6452;SDS011;3259;51.080;13.712;2023-12-04T04:38:13;0.93;;;0.20;;
6452;SDS011;3259;51.080;13.712;2023-12-04T04:41:03;1.33;;;0.20;;
6452;SDS011;3259;51.080;13.712;2023-12-04T04:43:52;0.10;;;0.10;;
6452;SDS011;3259;51.080;13.712;2023-12-04T04:46:41;0.25;;;0.22;;
6452;SDS011;3259;51.080;13.712;2023-12-04T04:49:30;1.17;;;0.20;;
6452;SDS011;3259;51.080;13.712;2023-12-04T04:52:19;0.15;;;0.10;;
6452;SDS011;3259;51.080;13.712;2023-12-04T04:55:07;0.10;;;0.10;;
6452;SDS011;3259;51.080;13.712;2023-12-04T04:57:58;0.20;;;0.20;;
6452;SDS011;3259;51.080;13.712;2023-12-04T05:00:47;0.08;;;0.08;;
6452;SDS011;3259;51.080;13.712;2023-12-04T05:03:35;1.77;;;0.20;;
6452;SDS011;3259;51.080;13.712;2023-12-04T05:06:24;0.10;;;0.10;;
6452;SDS011;3259;51.080;13.712;2023-12-04T05:09:13;0.10;;;0.10;;
6452;SDS011;3259;51.080;13.712;2023-12-04T05:12:02;0.17;;;0.10;;
6452;SDS011;3259;51.080;13.712;2023-12-04T05:14:53;0.45;;;0.10;;
6452;SDS011;3259;51.080;13.712;2023-12-04T05:17:42;0.70;;;0.10;;
6452;SDS011;3259;51.080;13.712;2023-12-04T05:20:31;0.10;;;0.10;;
6452;SDS011;3259;51.080;13.712;2023-12-04T05:23:21;0.05;;;0.00;;
6452;SDS011;3259;51.080;13.712;2023-12-04T05:26:09;15.07;;;2.00;;
6452;SDS011;3259;51.080;13.712;2023-12-04T05:28:58;15.35;;;2.60;;
6452;SDS011;3259;51.080;13.712;2023-12-04T05:31:48;3.33;;;2.40;;
6452;SDS011;3259;51.080;13.712;2023-12-04T05:34:37;10.65;;;2.95;;
6452;SDS011;3259;51.080;13.712;2023-12-04T05:37:26;3.53;;;1.92;;
6452;SDS011;3259;51.080;13.712;2023-12-04T05:40:15;6.22;;;2.92;;
6452;SDS011;3259;51.080;13.712;2023-12-04T05:43:04;4.03;;;2.53;;
6452;SDS011;3259;51.080;13.712;2023-12-04T05:45:52;7.55;;;2.72;;
6452;SDS011;3259;51.080;13.712;2023-12-04T05:48:42;4.05;;;2.83;;
6452;SDS011;3259;51.080;13.712;2023-12-04T05:51:32;2.70;;;2.22;;
6452;SDS011;3259;51.080;13.712;2023-12-04T05:54:21;2.05;;;1.63;;
6452;SDS011;3259;51.080;13.712;2023-12-04T05:57:10;3.15;;;1.98;;
6452;SDS011;3259;51.080;13.712;2023-12-04T05:59:59;3.45;;;1.80;;
6452;SDS011;3259;51.080;13.712;2023-12-04T06:02:47;2.67;;;1.70;;
6452;SDS011;3259;51.080;13.712;2023-12-04T06:05:38;2.38;;;1.10;;
6452;SDS011;3259;51.080;13.712;2023-12-04T06:08:26;4.43;;;1.70;;
6452;SDS011;3259;51.080;13.712;2023-12-04T06:11:15;4.00;;;1.58;;
6452;SDS011;3259;51.080;13.712;2023-12-04T06:14:04;1.73;;;1.60;;
6452;SDS011;3259;51.080;13.712;2023-12-04T06:16:53;6.38;;;1.80;;
6452;SDS011;3259;51.080;13.712;2023-12-04T06:19:42;2.67;;;1.23;;
6452;SDS011;3259;51.080;13.712;2023-12-04T06:22:33;4.80;;;1.45;;
6452;SDS011;3259;51.080;13.712;2023-12-04T06:25:22;1.52;;;1.20;;
6452;SDS011;3259;51.080;13.712;2023-12-04T06:28:18;1.40;;;1.08;;
6452;SDS011;3259;51.080;13.712;2023-12-04T06:31:08;1.58;;;1.45;;
6452;SDS011;3259;51.080;13.712;2023-12-04T06:33:58;1.95;;;1.13;;
6452;SDS011;3259;51.080;13.712;2023-12-04T06:36:47;2.72;;;1.20;;
6452;SDS011;3259;51.080;13.712;2023-12-04T06:39:38;2.00;;;1.33;;
6452;SDS011;3259;51.080;13.712;2023-12-04T06:42:28;2.03;;;1.10;;
6452;SDS011;3259;51.080;13.712;2023-12-04T06:45:18;0.80;;;0.80;;
6452;SDS011;3259;51.080;13.712;2023-12-04T06:48:08;1.52;;;0.90;;
6452;SDS011;3259;51.080;13.712;2023-12-04T06:50:59;0.95;;;0.65;;
6452;SDS011;3259;51.080;13.712;2023-12-04T06:53:47;1.23;;;1.02;;
6452;SDS011;3259;51.080;13.712;2023-12-04T06:56:37;0.95;;;0.95;;
6452;SDS011;3259;51.080;13.712;2023-12-04T06:59:26;2.22;;;1.17;;
6452;SDS011;3259;51.080;13.712;2023-12-04T07:02:15;2.85;;;0.85;;
6452;SDS011;3259;51.080;13.712;2023-12-04T07:05:04;1.45;;;0.50;;
6452;SDS011;3259;51.080;13.712;2023-12-04T07:07:53;2.00;;;0.98;;
6452;SDS011;3259;51.080;13.712;2023-12-04T07:10:42;3.40;;;0.90;;
6452;SDS011;3259;51.080;13.712;2023-12-04T07:13:32;3.70;;;1.02;;
6452;SDS011;3259;51.080;13.712;2023-12-04T07:16:21;0.85;;;0.77;;
6452;SDS011;3259;51.080;13.712;2023-12-04T07:19:10;1.80;;;1.23;;
6452;SDS011;3259;51.080;13.712;2023-12-04T07:22:01;2.72;;;0.88;;
6452;SDS011;3259;51.080;13.712;2023-12-04T07:24:50;2.83;;;0.77;;
6452;SDS011;3259;51.080;13.712;2023-12-04T07:27:39;1.75;;;0.60;;
6452;SDS011;3259;51.080;13.712;2023-12-04T07:30:29;2.90;;;1.27;;
6452;SDS011;3259;51.080;13.712;2023-12-04T07:33:18;2.63;;;1.08;;
6452;SDS011;3259;51.080;13.712;2023-12-04T07:36:07;5.80;;;2.05;;
6452;SDS011;3259;51.080;13.712;2023-12-04T07:38:56;7.78;;;2.17;;
6452;SDS011;3259;51.080;13.712;2023-12-04T07:41:45;9.57;;;2.78;;
6452;SDS011;3259;51.080;13.712;2023-12-04T07:44:34;18.40;;;4.28;;
6452;SDS011;3259;51.080;13.712;2023-12-04T07:47:25;8.45;;;3.40;;
6452;SDS011;3259;51.080;13.712;2023-12-04T07:50:13;11.48;;;3.65;;
6452;SDS011;3259;51.080;13.712;2023-12-04T07:53:02;11.93;;;4.10;;
6452;SDS011;3259;51.080;13.712;2023-12-04T07:55:52;12.52;;;4.38;;
6452;SDS011;3259;51.080;13.712;2023-12-04T07:58:40;14.77;;;3.70;;
6452;SDS011;3259;51.080;13.712;2023-12-04T08:01:29;11.45;;;4.07;;
6452;SDS011;3259;51.080;13.712;2023-12-04T08:04:19;13.65;;;3.83;;
6452;SDS011;3259;51.080;13.712;2023-12-04T08:07:08;10.10;;;4.57;;
6452;SDS011;3259;51.080;13.712;2023-12-04T08:09:57;13.25;;;4.43;;
6452;SDS011;3259;51.080;13.712;2023-12-04T08:12:46;15.52;;;4.47;;
6452;SDS011;3259;51.080;13.712;2023-12-04T08:15:34;13.07;;;4.25;;
6452;SDS011;3259;51.080;13.712;2023-12-04T08:18:23;13.10;;;4.90;;
6452;SDS011;3259;51.080;13.712;2023-12-04T08:21:13;10.27;;;4.32;;
6452;SDS011;3259;51.080;13.712;2023-12-04T08:24:02;11.82;;;4.57;;
6452;SDS011;3259;51.080;13.712;2023-12-04T08:26:51;9.70;;;5.07;;
6452;SDS011;3259;51.080;13.712;2023-12-04T08:29:40;9.98;;;4.97;;
6452;SDS011;3259;51.080;13.712;2023-12-04T08:32:29;12.55;;;4.53;;
6452;SDS011;3259;51.080;13.712;2023-12-04T08:35:18;6.93;;;4.18;;
6452;SDS011;3259;51.080;13.712;2023-12-04T08:38:08;16.55;;;5.45;;
6452;SDS011;3259;51.080;13.712;2023-12-04T08:40:56;8.02;;;4.00;;
6452;SDS011;3259;51.080;13.712;2023-12-04T08:43:45;10.43;;;4.88;;
6452;SDS011;3259;51.080;13.712;2023-12-04T08:46:34;7.95;;;4.65;;
6452;SDS011;3259;51.080;13.712;2023-12-04T08:49:23;8.95;;;4.15;;
6452;SDS011;3259;51.080;13.712;2023-12-04T08:52:25;11.60;;;4.63;;
6452;SDS011;3259;51.080;13.712;2023-12-04T08:55:15;7.75;;;4.03;;
6452;SDS011;3259;51.080;13.712;2023-12-04T08:58:04;7.40;;;4.22;;
6452;SDS011;3259;51.080;13.712;2023-12-04T09:00:53;11.35;;;4.25;;
6452;SDS011;3259;51.080;13.712;2023-12-04T09:03:42;7.18;;;3.45;;
6452;SDS011;3259;51.080;13.712;2023-12-04T09:06:31;10.18;;;4.53;;
6452;SDS011;3259;51.080;13.712;2023-12-04T09:09:22;7.80;;;4.43;;
6452;SDS011;3259;51.080;13.712;2023-12-04T09:12:13;10.13;;;4.15;;
6452;SDS011;3259;51.080;13.712;2023-12-04T09:15:02;7.63;;;3.95;;
6452;SDS011;3259;51.080;13.712;2023-12-04T09:17:52;7.30;;;3.97;;
6452;SDS011;3259;51.080;13.712;2023-12-04T09:20:41;10.18;;;4.65;;
6452;SDS011;3259;51.080;13.712;2023-12-04T09:23:30;9.55;;;3.80;;
6452;SDS011;3259;51.080;13.712;2023-12-04T09:26:32;5.47;;;3.67;;
6452;SDS011;3259;51.080;13.712;2023-12-04T09:29:22;5.72;;;3.15;;
6452;SDS011;3259;51.080;13.712;2023-12-04T09:32:17;5.45;;;3.05;;
6452;SDS011;3259;51.080;13.712;2023-12-04T09:35:10;9.00;;;3.45;;
6452;SDS011;3259;51.080;13.712;2023-12-04T09:38:13;7.10;;;3.35;;
6452;SDS011;3259;51.080;13.712;2023-12-04T09:41:03;8.93;;;3.55;;
6452;SDS011;3259;51.080;13.712;2023-12-04T09:43:55;6.28;;;3.03;;
6452;SDS011;3259;51.080;13.712;2023-12-04T09:46:48;5.38;;;3.00;;
6452;SDS011;3259;51.080;13.712;2023-12-04T09:49:46;5.88;;;2.75;;
6452;SDS011;3259;51.080;13.712;2023-12-04T09:52:41;4.38;;;2.83;;
6452;SDS011;3259;51.080;13.712;2023-12-04T09:55:30;8.27;;;3.78;;
6452;SDS011;3259;51.080;13.712;2023-12-04T09:58:19;4.82;;;2.88;;
6452;SDS011;3259;51.080;13.712;2023-12-04T10:01:08;5.72;;;2.80;;
6452;SDS011;3259;51.080;13.712;2023-12-04T10:04:00;10.68;;;2.90;;
6452;SDS011;3259;51.080;13.712;2023-12-04T10:06:51;6.55;;;2.65;;
6452;SDS011;3259;51.080;13.712;2023-12-04T10:09:40;6.78;;;3.03;;
6452;SDS011;3259;51.080;13.712;2023-12-04T10:12:29;6.80;;;3.45;;
6452;SDS011;3259;51.080;13.712;2023-12-04T10:15:20;7.97;;;3.47;;
6452;SDS011;3259;51.080;13.712;2023-12-04T10:18:11;7.38;;;3.45;;
6452;SDS011;3259;51.080;13.712;2023-12-04T10:21:15;6.68;;;2.85;;
6452;SDS011;3259;51.080;13.712;2023-12-04T10:24:08;9.43;;;3.35;;
6452;SDS011;3259;51.080;13.712;2023-12-04T10:26:57;10.68;;;3.17;;
6452;SDS011;3259;51.080;13.712;2023-12-04T10:29:47;7.90;;;3.25;;
6452;SDS011;3259;51.080;13.712;2023-12-04T10:32:39;4.00;;;2.83;;
6452;SDS011;3259;51.080;13.712;2023-12-04T10:35:29;8.48;;;3.67;;
6452;SDS011;3259;51.080;13.712;2023-12-04T10:38:19;7.47;;;2.60;;
6452;SDS011;3259;51.080;13.712;2023-12-04T10:41:13;5.80;;;3.47;;
6452;SDS011;3259;51.080;13.712;2023-12-04T10:44:02;5.65;;;3.13;;
6452;SDS011;3259;51.080;13.712;2023-12-04T10:46:57;4.95;;;2.65;;
6452;SDS011;3259;51.080;13.712;2023-12-04T10:49:47;6.85;;;2.92;;
6452;SDS011;3259;51.080;13.712;2023-12-04T10:52:38;5.15;;;2.88;;
6452;SDS011;3259;51.080;13.712;2023-12-04T10:55:29;3.80;;;2.30;;
6452;SDS011;3259;51.080;13.712;2023-12-04T10:58:18;3.75;;;2.85;;
6452;SDS011;3259;51.080;13.712;2023-12-04T11:01:10;6.32;;;2.97;;
6452;SDS011;3259;51.080;13.712;2023-12-04T11:04:00;9.93;;;3.08;;
6452;SDS011;3259;51.080;13.712;2023-12-04T11:06:54;10.05;;;3.67;;
6452;SDS011;3259;51.080;13.712;2023-12-04T11:09:43;6.30;;;3.03;;
6452;SDS011;3259;51.080;13.712;2023-12-04T11:12:36;5.95;;;2.88;;
6452;SDS011;3259;51.080;13.712;2023-12-04T11:15:29;4.00;;;2.78;;
6452;SDS011;3259;51.080;13.712;2023-12-04T11:18:20;8.30;;;2.85;;
6452;SDS011;3259;51.080;13.712;2023-12-04T11:21:11;4.35;;;2.90;;
6452;SDS011;3259;51.080;13.712;2023-12-04T11:24:00;6.68;;;2.80;;
6452;SDS011;3259;51.080;13.712;2023-12-04T11:26:49;5.05;;;2.40;;
6452;SDS011;3259;51.080;13.712;2023-12-04T11:29:40;6.32;;;2.83;;
6452;SDS011;3259;51.080;13.712;2023-12-04T11:32:29;5.15;;;2.33;;
6452;SDS011;3259;51.080;13.712;2023-12-04T11:35:18;4.80;;;2.40;;
6452;SDS011;3259;51.080;13.712;2023-12-04T11:38:08;4.53;;;2.53;;
6452;SDS011;3259;51.080;13.712;2023-12-04T11:41:11;5.63;;;2.45;;
6452;SDS011;3259;51.080;13.712;2023-12-04T11:44:11;6.80;;;3.20;;
6452;SDS011;3259;51.080;13.712;2023-12-04T11:47:04;7.35;;;2.65;;
6452;SDS011;3259;51.080;13.712;2023-12-04T11:49:54;2.35;;;2.03;;
6452;SDS011;3259;51.080;13.712;2023-12-04T11:52:43;4.75;;;2.70;;
6452;SDS011;3259;51.080;13.712;2023-12-04T11:55:32;3.53;;;2.10;;
6452;SDS011;3259;51.080;13.712;2023-12-04T11:58:23;7.28;;;2.40;;
6452;SDS011;3259;51.080;13.712;2023-12-04T12:01:13;3.72;;;2.13;;
6452;SDS011;3259;51.080;13.712;2023-12-04T12:04:06;6.80;;;2.53;;
6452;SDS011;3259;51.080;13.712;2023-12-04T12:06:57;2.92;;;2.17;;
6452;SDS011;3259;51.080;13.712;2023-12-04T12:09:50;4.97;;;2.13;;
6452;SDS011;3259;51.080;13.712;2023-12-04T12:12:39;4.30;;;2.10;;
6452;SDS011;3259;51.080;13.712;2023-12-04T12:15:28;5.30;;;2.47;;
6452;SDS011;3259;51.080;13.712;2023-12-04T12:18:17;4.15;;;2.65;;
6452;SDS011;3259;51.080;13.712;2023-12-04T12:21:08;4.22;;;2.20;;
6452;SDS011;3259;51.080;13.712;2023-12-04T12:23:56;5.63;;;2.65;;
6452;SDS011;3259;51.080;13.712;2023-12-04T12:26:46;3.88;;;1.88;;
6452;SDS011;3259;51.080;13.712;2023-12-04T12:29:35;4.15;;;2.00;;
6452;SDS011;3259;51.080;13.712;2023-12-04T12:32:23;4.90;;;2.63;;
6452;SDS011;3259;51.080;13.712;2023-12-04T12:35:17;3.58;;;2.03;;
6452;SDS011;3259;51.080;13.712;2023-12-04T12:38:07;6.53;;;2.78;;
6452;SDS011;3259;51.080;13.712;2023-12-04T12:40:56;5.47;;;2.40;;
6452;SDS011;3259;51.080;13.712;2023-12-04T12:43:45;4.03;;;2.05;;
6452;SDS011;3259;51.080;13.712;2023-12-04T12:46:34;3.28;;;2.28;;
6452;SDS011;3259;51.080;13.712;2023-12-04T12:49:24;4.10;;;2.03;;
6452;SDS011;3259;51.080;13.712;2023-12-04T12:52:25;2.40;;;1.85;;
6452;SDS011;3259;51.080;13.712;2023-12-04T12:55:23;3.13;;;1.83;;
6452;SDS011;3259;51.080;13.712;2023-12-04T12:58:12;5.18;;;2.20;;
6452;SDS011;3259;51.080;13.712;2023-12-04T13:01:02;1.80;;;1.70;;
6452;SDS011;3259;51.080;13.712;2023-12-04T13:03:51;4.25;;;2.50;;
6452;SDS011;3259;51.080;13.712;2023-12-04T13:06:41;3.70;;;1.77;;
6452;SDS011;3259;51.080;13.712;2023-12-04T13:09:30;4.68;;;2.13;;
6452;SDS011;3259;51.080;13.712;2023-12-04T13:12:20;3.92;;;2.08;;
6452;SDS011;3259;51.080;13.712;2023-12-04T13:15:09;1.95;;;1.52;;
6452;SDS011;3259;51.080;13.712;2023-12-04T13:17:58;3.80;;;2.25;;
6452;SDS011;3259;51.080;13.712;2023-12-04T13:20:47;3.15;;;2.40;;
6452;SDS011;3259;51.080;13.712;2023-12-04T13:23:35;2.72;;;1.83;;
6452;SDS011;3259;51.080;13.712;2023-12-04T13:26:24;3.55;;;2.08;;
6452;SDS011;3259;51.080;13.712;2023-12-04T13:29:15;2.92;;;1.88;;
6452;SDS011;3259;51.080;13.712;2023-12-04T13:32:05;2.65;;;1.65;;
6452;SDS011;3259;51.080;13.712;2023-12-04T13:34:54;3.40;;;2.00;;
6452;SDS011;3259;51.080;13.712;2023-12-04T13:37:43;2.05;;;1.67;;
6452;SDS011;3259;51.080;13.712;2023-12-04T13:40:32;3.40;;;1.95;;
6452;SDS011;3259;51.080;13.712;2023-12-04T13:43:21;5.38;;;1.75;;
6452;SDS011;3259;51.080;13.712;2023-12-04T13:46:29;3.47;;;1.48;;
6452;SDS011;3259;51.080;13.712;2023-12-04T13:49:18;3.83;;;1.85;;
6452;SDS011;3259;51.080;13.712;2023-12-04T13:52:07;5.63;;;1.52;;
6452;SDS011;3259;51.080;13.712;2023-12-04T13:54:55;1.55;;;1.40;;
6452;SDS011;3259;51.080;13.712;2023-12-04T13:57:44;2.33;;;1.50;;
6452;SDS011;3259;51.080;13.712;2023-12-04T14:00:49;4.60;;;2.00;;
6452;SDS011;3259;51.080;13.712;2023-12-04T14:03:39;2.30;;;1.35;;
6452;SDS011;3259;51.080;13.712;2023-12-04T14:06:29;4.18;;;1.60;;
6452;SDS011;3259;51.080;13.712;2023-12-04T14:09:19;1.50;;;1.25;;
6452;SDS011;3259;51.080;13.712;2023-12-04T14:12:08;2.22;;;1.52;;
6452;SDS011;3259;51.080;13.712;2023-12-04T14:14:57;2.03;;;1.30;;
6452;SDS011;3259;51.080;13.712;2023-12-04T14:17:46;2.03;;;1.30;;
6452;SDS011;3259;51.080;13.712;2023-12-04T14:20:37;2.53;;;1.25;;
6452;SDS011;3259;51.080;13.712;2023-12-04T14:23:26;8.23;;;1.50;;
6452;SDS011;3259;51.080;13.712;2023-12-04T14:26:14;5.25;;;2.25;;
6452;SDS011;3259;51.080;13.712;2023-12-04T14:29:03;3.55;;;2.13;;
6452;SDS011;3259;51.080;13.712;2023-12-04T14:31:54;5.88;;;2.90;;
6452;SDS011;3259;51.080;13.712;2023-12-04T14:34:43;5.00;;;3.13;;
6452;SDS011;3259;51.080;13.712;2023-12-04T14:37:34;3.13;;;2.80;;
6452;SDS011;3259;51.080;13.712;2023-12-04T14:40:23;5.25;;;3.35;;
6452;SDS011;3259;51.080;13.712;2023-12-04T14:43:12;7.75;;;3.78;;
6452;SDS011;3259;51.080;13.712;2023-12-04T14:46:00;4.30;;;3.28;;
6452;SDS011;3259;51.080;13.712;2023-12-04T14:48:49;5.00;;;3.83;;
6452;SDS011;3259;51.080;13.712;2023-12-04T14:51:38;5.03;;;3.35;;
6452;SDS011;3259;51.080;13.712;2023-12-04T14:54:28;3.13;;;2.83;;
6452;SDS011;3259;51.080;13.712;2023-12-04T14:57:34;6.50;;;2.60;;
6452;SDS011;3259;51.080;13.712;2023-12-04T15:00:37;5.65;;;2.67;;
6452;SDS011;3259;51.080;13.712;2023-12-04T15:03:40;5.05;;;2.70;;
6452;SDS011;3259;51.080;13.712;2023-12-04T15:07:03;10.15;;;3.28;;
6452;SDS011;3259;51.080;13.712;2023-12-04T15:10:24;6.13;;;2.47;;
6452;SDS011;3259;51.080;13.712;2023-12-04T15:13:50;3.25;;;2.03;;
6452;SDS011;3259;51.080;13.712;2023-12-04T15:16:47;5.85;;;1.95;;
6452;SDS011;3259;51.080;13.712;2023-12-04T15:19:40;4.60;;;1.88;;
6452;SDS011;3259;51.080;13.712;2023-12-04T15:22:44;5.15;;;2.17;;
6452;SDS011;3259;51.080;13.712;2023-12-04T15:25:35;2.65;;;1.92;;
6452;SDS011;3259;51.080;13.712;2023-12-04T15:28:24;4.20;;;1.77;;
6452;SDS011;3259;51.080;13.712;2023-12-04T15:31:12;5.95;;;1.85;;
6452;SDS011;3259;51.080;13.712;2023-12-04T15:34:01;4.50;;;2.08;;
6452;SDS011;3259;51.080;13.712;2023-12-04T15:36:51;3.05;;;2.13;;
6452;SDS011;3259;51.080;13.712;2023-12-04T15:39:40;2.40;;;1.63;;
6452;SDS011;3259;51.080;13.712;2023-12-04T15:42:29;1.90;;;1.70;;
6452;SDS011;3259;51.080;13.712;2023-12-04T15:45:18;3.25;;;1.85;;
6452;SDS011;3259;51.080;13.712;2023-12-04T15:48:07;2.88;;;1.40;;
6452;SDS011;3259;51.080;13.712;2023-12-04T15:50:57;1.63;;;1.25;;
6452;SDS011;3259;51.080;13.712;2023-12-04T15:53:44;2.75;;;1.42;;
6452;SDS011;3259;51.080;13.712;2023-12-04T15:56:35;2.13;;;1.70;;
6452;SDS011;3259;51.080;13.712;2023-12-04T15:59:24;3.90;;;1.77;;
6452;SDS011;3259;51.080;13.712;2023-12-04T16:02:13;3.45;;;1.80;;
6452;SDS011;3259;51.080;13.712;2023-12-04T16:05:01;2.33;;;1.70;;
6452;SDS011;3259;51.080;13.712;2023-12-04T16:07:51;1.52;;;1.40;;
6452;SDS011;3259;51.080;13.712;2023-12-04T16:10:40;6.18;;;1.45;;
6452;SDS011;3259;51.080;13.712;2023-12-04T16:13:29;5.00;;;1.52;;
6452;SDS011;3259;51.080;13.712;2023-12-04T16:16:19;4.88;;;1.38;;
6452;SDS011;3259;51.080;13.712;2023-12-04T16:19:08;6.20;;;1.73;;
6452;SDS011;3259;51.080;13.712;2023-12-04T16:21:57;2.15;;;1.50;;
6452;SDS011;3259;51.080;13.712;2023-12-04T16:24:46;7.40;;;1.50;;
6452;SDS011;3259;51.080;13.712;2023-12-04T16:27:35;5.90;;;1.42;;
6452;SDS011;3259;51.080;13.712;2023-12-04T16:30:25;4.78;;;1.48;;
6452;SDS011;3259;51.080;13.712;2023-12-04T16:33:15;3.08;;;1.23;;
6452;SDS011;3259;51.080;13.712;2023-12-04T16:36:04;3.33;;;1.35;;
6452;SDS011;3259;51.080;13.712;2023-12-04T16:38:54;3.85;;;1.70;;
6452;SDS011;3259;51.080;13.712;2023-12-04T16:41:43;2.50;;;1.05;;
6452;SDS011;3259;51.080;13.712;2023-12-04T16:44:34;1.80;;;1.42;;
6452;SDS011;3259;51.080;13.712;2023-12-04T16:47:23;4.43;;;1.45;;
6452;SDS011;3259;51.080;13.712;2023-12-04T16:50:13;4.88;;;1.80;;
6452;SDS011;3259;51.080;13.712;2023-12-04T16:53:02;2.08;;;1.25;;
6452;SDS011;3259;51.080;13.712;2023-12-04T16:55:51;2.75;;;1.73;;
6452;SDS011;3259;51.080;13.712;2023-12-04T16:58:40;4.45;;;1.40;;
6452;SDS011;3259;51.080;13.712;2023-12-04T17:01:29;1.33;;;1.17;;
6452;SDS011;3259;51.080;13.712;2023-12-04T17:04:18;4.32;;;1.30;;
6452;SDS011;3259;51.080;13.712;2023-12-04T17:07:08;1.63;;;1.45;;
6452;SDS011;3259;51.080;13.712;2023-12-04T17:09:57;2.00;;;1.13;;
6452;SDS011;3259;51.080;13.712;2023-12-04T17:12:46;0.90;;;0.85;;
6452;SDS011;3259;51.080;13.712;2023-12-04T17:15:35;1.80;;;1.17;;
6452;SDS011;3259;51.080;13.712;2023-12-04T17:18:23;2.00;;;1.38;;
6452;SDS011;3259;51.080;13.712;2023-12-04T17:21:12;1.95;;;1.20;;